<?xml version="1.0" encoding="UTF-8" standalone="no" ?>
<gpx xmlns="http://www.topografix.com/GPX/1/1" xmlns:xsi="http://www.w3.org/2001/XMLSchema-instance" xsi:schemaLocation="http://www.topografix.com/GPX/1/1 http://www.topografix.com/GPX/1/1/gpx.xsd" version="1.1" creator="VisuGPX - https://www.visugpx.com">
  <metadata>
    <name>Canyon de la Luyre</name>
    <desc><![CDATA[Canyon est le bon mot, quelques passages en Balcon choisir une période sèche et pas trop chaude.]]></desc>
  </metadata>
  <trk>
    <name><![CDATA[13433533-la louyre2]]></name>
    <extensions>
      <line xmlns="http://www.topografix.com/GPX/gpx_style/0/2">
        <color>0000FF</color>
        <width>4</width>
      </line>
    </extensions>
    <trkseg>
      <trkpt lat="44.61857" lon="4.44053">
        <ele>229</ele>
        <time>2021-07-22T16:37:36Z</time>
      </trkpt>
      <trkpt lat="44.61877" lon="4.44056">
        <ele>225.2</ele>
      </trkpt>
      <trkpt lat="44.61914" lon="4.44097">
        <ele>224</ele>
        <time>2021-07-22T16:38:17Z</time>
      </trkpt>
      <trkpt lat="44.61924" lon="4.44107">
        <ele>225</ele>
        <time>2021-07-22T16:38:33Z</time>
      </trkpt>
      <trkpt lat="44.6193" lon="4.44129">
        <ele>221.1</ele>
      </trkpt>
      <trkpt lat="44.61935" lon="4.44133">
        <ele>219.5</ele>
      </trkpt>
      <trkpt lat="44.61938" lon="4.44117">
        <ele>218.7</ele>
      </trkpt>
      <trkpt lat="44.61938" lon="4.44092">
        <ele>217</ele>
      </trkpt>
      <trkpt lat="44.61935" lon="4.44072">
        <ele>215.6</ele>
      </trkpt>
      <trkpt lat="44.61929" lon="4.44056">
        <ele>215.7</ele>
        <time>2021-07-22T16:39:01Z</time>
      </trkpt>
      <trkpt lat="44.61931" lon="4.44048">
        <ele>213.2</ele>
      </trkpt>
      <trkpt lat="44.61939" lon="4.44055">
        <ele>212.3</ele>
      </trkpt>
      <trkpt lat="44.6195" lon="4.44074">
        <ele>212</ele>
      </trkpt>
      <trkpt lat="44.6196" lon="4.44106">
        <ele>227</ele>
        <time>2021-07-22T16:39:24Z</time>
      </trkpt>
      <trkpt lat="44.6196" lon="4.44131">
        <ele>228</ele>
        <time>2021-07-22T16:39:48Z</time>
      </trkpt>
      <trkpt lat="44.61961" lon="4.44142">
        <ele>209.8</ele>
      </trkpt>
      <trkpt lat="44.61965" lon="4.44149">
        <ele>207.6</ele>
      </trkpt>
      <trkpt lat="44.6197" lon="4.44135">
        <ele>207.2</ele>
      </trkpt>
      <trkpt lat="44.61977" lon="4.4413">
        <ele>206.1</ele>
        <time>2021-07-22T16:40:07Z</time>
      </trkpt>
      <trkpt lat="44.61979" lon="4.44142">
        <ele>205.9</ele>
      </trkpt>
      <trkpt lat="44.61979" lon="4.44149">
        <ele>206.2</ele>
      </trkpt>
      <trkpt lat="44.61978" lon="4.44157">
        <ele>232</ele>
        <time>2021-07-22T16:40:29Z</time>
      </trkpt>
      <trkpt lat="44.6197" lon="4.44175">
        <ele>232</ele>
        <time>2021-07-22T16:40:50Z</time>
      </trkpt>
      <trkpt lat="44.6192" lon="4.44215">
        <ele>228</ele>
        <time>2021-07-22T16:42:06Z</time>
      </trkpt>
      <trkpt lat="44.61898" lon="4.44248">
        <ele>232</ele>
        <time>2021-07-22T16:42:49Z</time>
      </trkpt>
      <trkpt lat="44.61889" lon="4.44294">
        <ele>234</ele>
        <time>2021-07-22T16:43:35Z</time>
      </trkpt>
      <trkpt lat="44.61894" lon="4.44344">
        <ele>232</ele>
        <time>2021-07-22T16:44:23Z</time>
      </trkpt>
      <trkpt lat="44.61921" lon="4.44369">
        <ele>228</ele>
        <time>2021-07-22T16:45:06Z</time>
      </trkpt>
      <trkpt lat="44.61982" lon="4.44353">
        <ele>235</ele>
        <time>2021-07-22T16:46:29Z</time>
      </trkpt>
      <trkpt lat="44.62007" lon="4.44342">
        <ele>241</ele>
        <time>2021-07-22T16:47:04Z</time>
      </trkpt>
      <trkpt lat="44.62027" lon="4.44357">
        <ele>244</ele>
        <time>2021-07-22T16:47:34Z</time>
      </trkpt>
      <trkpt lat="44.62028" lon="4.44404">
        <ele>237</ele>
        <time>2021-07-22T16:48:18Z</time>
      </trkpt>
      <trkpt lat="44.62042" lon="4.44448">
        <ele>237</ele>
        <time>2021-07-22T16:49:04Z</time>
      </trkpt>
      <trkpt lat="44.62043" lon="4.44529">
        <ele>237</ele>
        <time>2021-07-22T16:50:21Z</time>
      </trkpt>
      <trkpt lat="44.62052" lon="4.44552">
        <ele>237</ele>
        <time>2021-07-22T16:50:46Z</time>
      </trkpt>
      <trkpt lat="44.62102" lon="4.44551">
        <ele>231</ele>
        <time>2021-07-22T16:51:53Z</time>
      </trkpt>
      <trkpt lat="44.62128" lon="4.4457">
        <ele>229</ele>
        <time>2021-07-22T16:52:32Z</time>
      </trkpt>
      <trkpt lat="44.62148" lon="4.44595">
        <ele>227</ele>
        <time>2021-07-22T16:53:08Z</time>
      </trkpt>
      <trkpt lat="44.62129" lon="4.44667">
        <ele>234</ele>
        <time>2021-07-22T16:54:21Z</time>
      </trkpt>
      <trkpt lat="44.62144" lon="4.44709">
        <ele>234</ele>
        <time>2021-07-22T16:55:05Z</time>
      </trkpt>
      <trkpt lat="44.62194" lon="4.44731">
        <ele>233</ele>
        <time>2021-07-22T16:56:15Z</time>
      </trkpt>
      <trkpt lat="44.62198" lon="4.4477">
        <ele>234</ele>
        <time>2021-07-22T16:56:53Z</time>
      </trkpt>
      <trkpt lat="44.62179" lon="4.44857">
        <ele>238</ele>
        <time>2021-07-22T16:58:19Z</time>
      </trkpt>
      <trkpt lat="44.62203" lon="4.44796">
        <ele>235</ele>
        <time>2021-07-22T16:59:25Z</time>
      </trkpt>
      <trkpt lat="44.62264" lon="4.44859">
        <ele>241</ele>
        <time>2021-07-22T17:01:06Z</time>
      </trkpt>
      <trkpt lat="44.62275" lon="4.44891">
        <ele>246</ele>
        <time>2021-07-22T17:01:40Z</time>
      </trkpt>
      <trkpt lat="44.62262" lon="4.44937">
        <ele>240</ele>
        <time>2021-07-22T17:02:27Z</time>
      </trkpt>
      <trkpt lat="44.62179" lon="4.44957">
        <ele>240</ele>
        <time>2021-07-22T17:04:19Z</time>
      </trkpt>
      <trkpt lat="44.62137" lon="4.4494">
        <ele>248</ele>
        <time>2021-07-22T17:05:18Z</time>
      </trkpt>
      <trkpt lat="44.62129" lon="4.44963">
        <ele>249</ele>
        <time>2021-07-22T17:05:42Z</time>
      </trkpt>
      <trkpt lat="44.6213" lon="4.4501">
        <ele>247</ele>
        <time>2021-07-22T17:06:27Z</time>
      </trkpt>
      <trkpt lat="44.62164" lon="4.45027">
        <ele>242</ele>
        <time>2021-07-22T17:07:15Z</time>
      </trkpt>
      <trkpt lat="44.62181" lon="4.45059">
        <ele>245</ele>
        <time>2021-07-22T17:07:53Z</time>
      </trkpt>
      <trkpt lat="44.62186" lon="4.45095">
        <ele>252</ele>
        <time>2021-07-22T17:08:28Z</time>
      </trkpt>
      <trkpt lat="44.62238" lon="4.45094">
        <ele>249</ele>
        <time>2021-07-22T17:09:37Z</time>
      </trkpt>
      <trkpt lat="44.62273" lon="4.45048">
        <ele>244</ele>
        <time>2021-07-22T17:10:41Z</time>
      </trkpt>
      <trkpt lat="44.62312" lon="4.45027">
        <ele>249</ele>
        <time>2021-07-22T17:11:37Z</time>
      </trkpt>
      <trkpt lat="44.62342" lon="4.45055">
        <ele>253</ele>
        <time>2021-07-22T17:12:25Z</time>
      </trkpt>
      <trkpt lat="44.62364" lon="4.45114">
        <ele>257</ele>
        <time>2021-07-22T17:13:28Z</time>
      </trkpt>
      <trkpt lat="44.62433" lon="4.45131">
        <ele>256</ele>
        <time>2021-07-22T17:15:02Z</time>
      </trkpt>
      <trkpt lat="44.62482" lon="4.45145">
        <ele>264</ele>
        <time>2021-07-22T17:16:08Z</time>
      </trkpt>
      <trkpt lat="44.62492" lon="4.4518">
        <ele>260</ele>
        <time>2021-07-22T17:16:44Z</time>
      </trkpt>
      <trkpt lat="44.62488" lon="4.45207">
        <ele>260</ele>
        <time>2021-07-22T17:17:10Z</time>
      </trkpt>
      <trkpt lat="44.62467" lon="4.45205">
        <ele>258</ele>
        <time>2021-07-22T17:17:38Z</time>
      </trkpt>
      <trkpt lat="44.62447" lon="4.45187">
        <ele>255</ele>
        <time>2021-07-22T17:18:10Z</time>
      </trkpt>
      <trkpt lat="44.62436" lon="4.45189">
        <ele>254</ele>
        <time>2021-07-22T17:18:25Z</time>
      </trkpt>
      <trkpt lat="44.62439" lon="4.45209">
        <ele>256</ele>
        <time>2021-07-22T17:18:44Z</time>
      </trkpt>
      <trkpt lat="44.62464" lon="4.45234">
        <ele>260</ele>
        <time>2021-07-22T17:19:25Z</time>
      </trkpt>
      <trkpt lat="44.62474" lon="4.45288">
        <ele>262</ele>
        <time>2021-07-22T17:20:18Z</time>
      </trkpt>
      <trkpt lat="44.62472" lon="4.45337">
        <ele>265</ele>
        <time>2021-07-22T17:21:05Z</time>
      </trkpt>
      <trkpt lat="44.62449" lon="4.45389">
        <ele>267</ele>
        <time>2021-07-22T17:22:03Z</time>
      </trkpt>
      <trkpt lat="44.62411" lon="4.4541">
        <ele>263</ele>
        <time>2021-07-22T17:22:57Z</time>
      </trkpt>
      <trkpt lat="44.62387" lon="4.45405">
        <ele>267</ele>
        <time>2021-07-22T17:23:30Z</time>
      </trkpt>
      <trkpt lat="44.6236" lon="4.45462">
        <ele>271</ele>
        <time>2021-07-22T17:24:35Z</time>
      </trkpt>
      <trkpt lat="44.62349" lon="4.45502">
        <ele>270</ele>
        <time>2021-07-22T17:25:16Z</time>
      </trkpt>
      <trkpt lat="44.62357" lon="4.45542">
        <ele>274</ele>
        <time>2021-07-22T17:25:55Z</time>
      </trkpt>
      <trkpt lat="44.62383" lon="4.45577">
        <ele>279</ele>
        <time>2021-07-22T17:26:43Z</time>
      </trkpt>
      <trkpt lat="44.6239" lon="4.45625">
        <ele>279</ele>
        <time>2021-07-22T17:27:30Z</time>
      </trkpt>
      <trkpt lat="44.62403" lon="4.45619">
        <ele>279</ele>
        <time>2021-07-22T17:27:48Z</time>
      </trkpt>
      <trkpt lat="44.62387" lon="4.45647">
        <ele>278</ele>
        <time>2021-07-22T17:28:22Z</time>
      </trkpt>
      <trkpt lat="44.62403" lon="4.45671">
        <ele>276</ele>
        <time>2021-07-22T17:28:53Z</time>
      </trkpt>
      <trkpt lat="44.62405" lon="4.45695">
        <ele>276</ele>
        <time>2021-07-22T17:29:16Z</time>
      </trkpt>
      <trkpt lat="44.62428" lon="4.45763">
        <ele>277</ele>
        <time>2021-07-22T17:30:28Z</time>
      </trkpt>
      <trkpt lat="44.62453" lon="4.45808">
        <ele>283</ele>
        <time>2021-07-22T17:31:22Z</time>
      </trkpt>
      <trkpt lat="44.62462" lon="4.45842">
        <ele>284</ele>
        <time>2021-07-22T17:31:56Z</time>
      </trkpt>
      <trkpt lat="44.62478" lon="4.45864">
        <ele>286</ele>
        <time>2021-07-22T17:32:26Z</time>
      </trkpt>
      <trkpt lat="44.62516" lon="4.45855">
        <ele>284</ele>
        <time>2021-07-22T17:33:18Z</time>
      </trkpt>
      <trkpt lat="44.62563" lon="4.4588">
        <ele>289</ele>
        <time>2021-07-22T17:34:25Z</time>
      </trkpt>
      <trkpt lat="44.62596" lon="4.45908">
        <ele>288</ele>
        <time>2021-07-22T17:35:16Z</time>
      </trkpt>
      <trkpt lat="44.62625" lon="4.4594">
        <ele>295</ele>
        <time>2021-07-22T17:36:05Z</time>
      </trkpt>
      <trkpt lat="44.62651" lon="4.45961">
        <ele>298</ele>
        <time>2021-07-22T17:36:45Z</time>
      </trkpt>
      <trkpt lat="44.62658" lon="4.45982">
        <ele>298</ele>
        <time>2021-07-22T17:37:07Z</time>
      </trkpt>
      <trkpt lat="44.62706" lon="4.46024">
        <ele>306</ele>
        <time>2021-07-22T17:38:23Z</time>
      </trkpt>
      <trkpt lat="44.62722" lon="4.46026">
        <ele>306</ele>
        <time>2021-07-22T17:38:44Z</time>
      </trkpt>
      <trkpt lat="44.62728" lon="4.46052">
        <ele>305</ele>
        <time>2021-07-22T17:39:10Z</time>
      </trkpt>
      <trkpt lat="44.62757" lon="4.46057">
        <ele>304</ele>
        <time>2021-07-22T17:39:49Z</time>
      </trkpt>
      <trkpt lat="44.62754" lon="4.46071">
        <ele>300</ele>
        <time>2021-07-22T17:40:03Z</time>
      </trkpt>
      <trkpt lat="44.62759" lon="4.46088">
        <ele>301</ele>
        <time>2021-07-22T17:40:21Z</time>
      </trkpt>
      <trkpt lat="44.62754" lon="4.46112">
        <ele>306</ele>
        <time>2021-07-22T17:40:44Z</time>
      </trkpt>
      <trkpt lat="44.62766" lon="4.46102">
        <ele>306</ele>
        <time>2021-07-22T17:41:03Z</time>
      </trkpt>
      <trkpt lat="44.62771" lon="4.4611">
        <ele>308</ele>
        <time>2021-07-22T17:41:13Z</time>
      </trkpt>
      <trkpt lat="44.62772" lon="4.4613">
        <ele>312</ele>
        <time>2021-07-22T17:41:32Z</time>
      </trkpt>
      <trkpt lat="44.62799" lon="4.46138">
        <ele>313</ele>
        <time>2021-07-22T17:42:09Z</time>
      </trkpt>
      <trkpt lat="44.62803" lon="4.46161">
        <ele>313</ele>
        <time>2021-07-22T17:42:31Z</time>
      </trkpt>
      <trkpt lat="44.62812" lon="4.46168">
        <ele>312</ele>
        <time>2021-07-22T17:42:45Z</time>
      </trkpt>
      <trkpt lat="44.62833" lon="4.46161">
        <ele>309</ele>
        <time>2021-07-22T17:43:14Z</time>
      </trkpt>
      <trkpt lat="44.62852" lon="4.4618">
        <ele>313</ele>
        <time>2021-07-22T17:43:45Z</time>
      </trkpt>
      <trkpt lat="44.6284" lon="4.4618">
        <ele>312</ele>
        <time>2021-07-22T17:44:01Z</time>
      </trkpt>
      <trkpt lat="44.6284" lon="4.46187">
        <ele>314</ele>
        <time>2021-07-22T17:44:08Z</time>
      </trkpt>
      <trkpt lat="44.62861" lon="4.46183">
        <ele>314</ele>
        <time>2021-07-22T17:44:36Z</time>
      </trkpt>
      <trkpt lat="44.62874" lon="4.46166">
        <ele>313</ele>
        <time>2021-07-22T17:45:00Z</time>
      </trkpt>
      <trkpt lat="44.62907" lon="4.46191">
        <ele>316</ele>
        <time>2021-07-22T17:45:50Z</time>
      </trkpt>
      <trkpt lat="44.62926" lon="4.46202">
        <ele>317</ele>
        <time>2021-07-22T17:46:17Z</time>
      </trkpt>
      <trkpt lat="44.62932" lon="4.46233">
        <ele>316</ele>
        <time>2021-07-22T17:46:48Z</time>
      </trkpt>
      <trkpt lat="44.62943" lon="4.46264">
        <ele>319</ele>
        <time>2021-07-22T17:47:21Z</time>
      </trkpt>
      <trkpt lat="44.62979" lon="4.46307">
        <ele>322</ele>
        <time>2021-07-22T17:48:24Z</time>
      </trkpt>
      <trkpt lat="44.62979" lon="4.46332">
        <ele>322</ele>
        <time>2021-07-22T17:48:47Z</time>
      </trkpt>
      <trkpt lat="44.63" lon="4.46353">
        <ele>320</ele>
        <time>2021-07-22T17:49:22Z</time>
      </trkpt>
      <trkpt lat="44.63028" lon="4.46354">
        <ele>324</ele>
        <time>2021-07-22T17:49:59Z</time>
      </trkpt>
      <trkpt lat="44.63033" lon="4.46364">
        <ele>327</ele>
        <time>2021-07-22T17:50:11Z</time>
      </trkpt>
      <trkpt lat="44.63042" lon="4.46366">
        <ele>329</ele>
        <time>2021-07-22T17:50:23Z</time>
      </trkpt>
      <trkpt lat="44.63078" lon="4.46325">
        <ele>328</ele>
        <time>2021-07-22T17:51:25Z</time>
      </trkpt>
      <trkpt lat="44.6309" lon="4.46313">
        <ele>331</ele>
        <time>2021-07-22T17:51:44Z</time>
      </trkpt>
      <trkpt lat="44.63086" lon="4.46293">
        <ele>332</ele>
        <time>2021-07-22T17:52:04Z</time>
      </trkpt>
      <trkpt lat="44.63115" lon="4.46276">
        <ele>334</ele>
        <time>2021-07-22T17:52:46Z</time>
      </trkpt>
      <trkpt lat="44.63137" lon="4.46244">
        <ele>333</ele>
        <time>2021-07-22T17:53:28Z</time>
      </trkpt>
      <trkpt lat="44.63152" lon="4.46235">
        <ele>332</ele>
        <time>2021-07-22T17:53:50Z</time>
      </trkpt>
      <trkpt lat="44.63148" lon="4.46219">
        <ele>334</ele>
        <time>2021-07-22T17:54:06Z</time>
      </trkpt>
      <trkpt lat="44.63164" lon="4.46184">
        <ele>333</ele>
        <time>2021-07-22T17:54:46Z</time>
      </trkpt>
      <trkpt lat="44.63174" lon="4.46172">
        <ele>333</ele>
        <time>2021-07-22T17:55:03Z</time>
      </trkpt>
      <trkpt lat="44.63195" lon="4.4617">
        <ele>334</ele>
        <time>2021-07-22T17:55:31Z</time>
      </trkpt>
      <trkpt lat="44.63215" lon="4.46166">
        <ele>334</ele>
        <time>2021-07-22T17:55:58Z</time>
      </trkpt>
      <trkpt lat="44.63264" lon="4.46174">
        <ele>336</ele>
        <time>2021-07-22T17:57:04Z</time>
      </trkpt>
      <trkpt lat="44.63287" lon="4.46167">
        <ele>335</ele>
        <time>2021-07-22T17:57:36Z</time>
      </trkpt>
      <trkpt lat="44.63301" lon="4.46172">
        <ele>336</ele>
        <time>2021-07-22T17:57:55Z</time>
      </trkpt>
      <trkpt lat="44.633" lon="4.46182">
        <ele>338</ele>
        <time>2021-07-22T17:58:04Z</time>
      </trkpt>
      <trkpt lat="44.6331" lon="4.46184">
        <ele>339</ele>
        <time>2021-07-22T17:58:18Z</time>
      </trkpt>
      <trkpt lat="44.63316" lon="4.46174">
        <ele>337</ele>
        <time>2021-07-22T17:58:30Z</time>
      </trkpt>
      <trkpt lat="44.63331" lon="4.46183">
        <ele>339</ele>
        <time>2021-07-22T17:58:52Z</time>
      </trkpt>
      <trkpt lat="44.63334" lon="4.46172">
        <ele>336</ele>
        <time>2021-07-22T17:59:03Z</time>
      </trkpt>
      <trkpt lat="44.63345" lon="4.4616">
        <ele>336</ele>
        <time>2021-07-22T17:59:22Z</time>
      </trkpt>
      <trkpt lat="44.6337" lon="4.46157">
        <ele>336</ele>
        <time>2021-07-22T17:59:55Z</time>
      </trkpt>
      <trkpt lat="44.63377" lon="4.4614">
        <ele>337</ele>
        <time>2021-07-22T18:00:14Z</time>
      </trkpt>
      <trkpt lat="44.63382" lon="4.46122">
        <ele>339</ele>
        <time>2021-07-22T18:00:32Z</time>
      </trkpt>
      <trkpt lat="44.63392" lon="4.46121">
        <ele>339</ele>
        <time>2021-07-22T18:00:46Z</time>
      </trkpt>
      <trkpt lat="44.63413" lon="4.46154">
        <ele>335</ele>
        <time>2021-07-22T18:01:28Z</time>
      </trkpt>
      <trkpt lat="44.63426" lon="4.46168">
        <ele>334</ele>
        <time>2021-07-22T18:01:50Z</time>
      </trkpt>
      <trkpt lat="44.63441" lon="4.46161">
        <ele>335</ele>
        <time>2021-07-22T18:02:11Z</time>
      </trkpt>
      <trkpt lat="44.6343" lon="4.46144">
        <ele>337</ele>
        <time>2021-07-22T18:02:33Z</time>
      </trkpt>
      <trkpt lat="44.63427" lon="4.46097">
        <ele>342</ele>
        <time>2021-07-22T18:03:17Z</time>
      </trkpt>
      <trkpt lat="44.63416" lon="4.46063">
        <ele>348</ele>
        <time>2021-07-22T18:03:53Z</time>
      </trkpt>
      <trkpt lat="44.63386" lon="4.46056">
        <ele>350</ele>
        <time>2021-07-22T18:04:33Z</time>
      </trkpt>
      <trkpt lat="44.63368" lon="4.46071">
        <ele>346</ele>
        <time>2021-07-22T18:05:01Z</time>
      </trkpt>
      <trkpt lat="44.63346" lon="4.46071">
        <ele>346</ele>
        <time>2021-07-22T18:05:31Z</time>
      </trkpt>
      <trkpt lat="44.63338" lon="4.46062">
        <ele>348</ele>
        <time>2021-07-22T18:05:44Z</time>
      </trkpt>
      <trkpt lat="44.63318" lon="4.4606">
        <ele>349</ele>
        <time>2021-07-22T18:06:11Z</time>
      </trkpt>
      <trkpt lat="44.63282" lon="4.46033">
        <ele>355</ele>
        <time>2021-07-22T18:07:06Z</time>
      </trkpt>
      <trkpt lat="44.63258" lon="4.46004">
        <ele>360</ele>
        <time>2021-07-22T18:07:48Z</time>
      </trkpt>
      <trkpt lat="44.63207" lon="4.45943">
        <ele>363</ele>
        <time>2021-07-22T18:09:17Z</time>
      </trkpt>
      <trkpt lat="44.63224" lon="4.45931">
        <ele>363</ele>
        <time>2021-07-22T18:09:43Z</time>
      </trkpt>
      <trkpt lat="44.63276" lon="4.45935">
        <ele>365</ele>
        <time>2021-07-22T18:10:52Z</time>
      </trkpt>
      <trkpt lat="44.63318" lon="4.45923">
        <ele>368</ele>
        <time>2021-07-22T18:11:49Z</time>
      </trkpt>
      <trkpt lat="44.63345" lon="4.45908">
        <ele>370</ele>
        <time>2021-07-22T18:12:28Z</time>
      </trkpt>
      <trkpt lat="44.63415" lon="4.4591">
        <ele>373</ele>
        <time>2021-07-22T18:14:01Z</time>
      </trkpt>
      <trkpt lat="44.63455" lon="4.45929">
        <ele>374</ele>
        <time>2021-07-22T18:14:58Z</time>
      </trkpt>
      <trkpt lat="44.63529" lon="4.45915">
        <ele>380</ele>
        <time>2021-07-22T18:16:37Z</time>
      </trkpt>
      <trkpt lat="44.63563" lon="4.45872">
        <ele>388</ele>
        <time>2021-07-22T18:17:38Z</time>
      </trkpt>
      <trkpt lat="44.63639" lon="4.45877">
        <ele>397</ele>
        <time>2021-07-22T18:19:20Z</time>
      </trkpt>
      <trkpt lat="44.63645" lon="4.45892">
        <ele>396</ele>
        <time>2021-07-22T18:19:36Z</time>
      </trkpt>
      <trkpt lat="44.63631" lon="4.45928">
        <ele>389</ele>
        <time>2021-07-22T18:20:15Z</time>
      </trkpt>
      <trkpt lat="44.63639" lon="4.45972">
        <ele>385</ele>
        <time>2021-07-22T18:20:58Z</time>
      </trkpt>
      <trkpt lat="44.63651" lon="4.46024">
        <ele>380</ele>
        <time>2021-07-22T18:21:50Z</time>
      </trkpt>
      <trkpt lat="44.63706" lon="4.46055">
        <ele>381</ele>
        <time>2021-07-22T18:23:09Z</time>
      </trkpt>
      <trkpt lat="44.63767" lon="4.46052">
        <ele>390</ele>
        <time>2021-07-22T18:24:31Z</time>
      </trkpt>
      <trkpt lat="44.63804" lon="4.46074">
        <ele>394</ele>
        <time>2021-07-22T18:25:24Z</time>
      </trkpt>
      <trkpt lat="44.63813" lon="4.46133">
        <ele>383</ele>
        <time>2021-07-22T18:26:22Z</time>
      </trkpt>
      <trkpt lat="44.63812" lon="4.46145">
        <ele>380</ele>
        <time>2021-07-22T18:26:33Z</time>
      </trkpt>
      <trkpt lat="44.63809" lon="4.46169">
        <ele>374</ele>
        <time>2021-07-22T18:26:56Z</time>
      </trkpt>
      <trkpt lat="44.63821" lon="4.46184">
        <ele>377</ele>
        <time>2021-07-22T18:27:18Z</time>
      </trkpt>
      <trkpt lat="44.63822" lon="4.46219">
        <ele>373</ele>
        <time>2021-07-22T18:27:51Z</time>
      </trkpt>
      <trkpt lat="44.63802" lon="4.46263">
        <ele>363</ele>
        <time>2021-07-22T18:28:41Z</time>
      </trkpt>
      <trkpt lat="44.63763" lon="4.46267">
        <ele>351</ele>
        <time>2021-07-22T18:29:33Z</time>
      </trkpt>
      <trkpt lat="44.63754" lon="4.46293">
        <ele>350</ele>
        <time>2021-07-22T18:30:00Z</time>
      </trkpt>
      <trkpt lat="44.63749" lon="4.4629">
        <ele>348</ele>
        <time>2021-07-22T18:30:08Z</time>
      </trkpt>
      <trkpt lat="44.63741" lon="4.46303">
        <ele>351</ele>
        <time>2021-07-22T18:30:24Z</time>
      </trkpt>
      <trkpt lat="44.6375" lon="4.46359">
        <ele>353</ele>
        <time>2021-07-22T18:31:18Z</time>
      </trkpt>
      <trkpt lat="44.63743" lon="4.46409">
        <ele>357</ele>
        <time>2021-07-22T18:32:07Z</time>
      </trkpt>
      <trkpt lat="44.63746" lon="4.46352">
        <ele>354</ele>
        <time>2021-07-22T18:33:01Z</time>
      </trkpt>
      <trkpt lat="44.63737" lon="4.46308">
        <ele>352</ele>
        <time>2021-07-22T18:33:45Z</time>
      </trkpt>
      <trkpt lat="44.63727" lon="4.46284">
        <ele>350</ele>
        <time>2021-07-22T18:34:11Z</time>
      </trkpt>
      <trkpt lat="44.63723" lon="4.4627">
        <ele>348</ele>
        <time>2021-07-22T18:34:25Z</time>
      </trkpt>
      <trkpt lat="44.63727" lon="4.4625">
        <ele>346</ele>
        <time>2021-07-22T18:34:45Z</time>
      </trkpt>
      <trkpt lat="44.63726" lon="4.46238">
        <ele>346</ele>
        <time>2021-07-22T18:34:56Z</time>
      </trkpt>
      <trkpt lat="44.63713" lon="4.46238">
        <ele>346</ele>
        <time>2021-07-22T18:35:14Z</time>
      </trkpt>
      <trkpt lat="44.63707" lon="4.46262">
        <ele>348</ele>
        <time>2021-07-22T18:35:38Z</time>
      </trkpt>
      <trkpt lat="44.63663" lon="4.46303">
        <ele>361</ele>
        <time>2021-07-22T18:36:48Z</time>
      </trkpt>
      <trkpt lat="44.63613" lon="4.46311">
        <ele>365</ele>
        <time>2021-07-22T18:37:56Z</time>
      </trkpt>
      <trkpt lat="44.63577" lon="4.46306">
        <ele>366</ele>
        <time>2021-07-22T18:38:44Z</time>
      </trkpt>
      <trkpt lat="44.63532" lon="4.46272">
        <ele>356</ele>
        <time>2021-07-22T18:39:52Z</time>
      </trkpt>
      <trkpt lat="44.63518" lon="4.46269">
        <ele>357</ele>
        <time>2021-07-22T18:40:11Z</time>
      </trkpt>
      <trkpt lat="44.63468" lon="4.46287">
        <ele>365</ele>
        <time>2021-07-22T18:41:20Z</time>
      </trkpt>
      <trkpt lat="44.63424" lon="4.46282">
        <ele>363</ele>
        <time>2021-07-22T18:42:19Z</time>
      </trkpt>
      <trkpt lat="44.63411" lon="4.46304">
        <ele>369</ele>
        <time>2021-07-22T18:42:46Z</time>
      </trkpt>
      <trkpt lat="44.63423" lon="4.46313">
        <ele>372</ele>
        <time>2021-07-22T18:43:04Z</time>
      </trkpt>
      <trkpt lat="44.63414" lon="4.46346">
        <ele>378</ele>
        <time>2021-07-22T18:43:38Z</time>
      </trkpt>
      <trkpt lat="44.63387" lon="4.46418">
        <ele>379</ele>
        <time>2021-07-22T18:44:55Z</time>
      </trkpt>
      <trkpt lat="44.63359" lon="4.46471">
        <ele>377</ele>
        <time>2021-07-22T18:45:58Z</time>
      </trkpt>
      <trkpt lat="44.63333" lon="4.4655">
        <ele>376</ele>
        <time>2021-07-22T18:47:20Z</time>
      </trkpt>
      <trkpt lat="44.63326" lon="4.46591">
        <ele>376</ele>
        <time>2021-07-22T18:48:00Z</time>
      </trkpt>
      <trkpt lat="44.63308" lon="4.4661">
        <ele>376</ele>
        <time>2021-07-22T18:48:30Z</time>
      </trkpt>
      <trkpt lat="44.63301" lon="4.46634">
        <ele>377</ele>
        <time>2021-07-22T18:48:55Z</time>
      </trkpt>
      <trkpt lat="44.63305" lon="4.46648">
        <ele>378</ele>
        <time>2021-07-22T18:49:09Z</time>
      </trkpt>
      <trkpt lat="44.63303" lon="4.4667">
        <ele>379</ele>
        <time>2021-07-22T18:49:30Z</time>
      </trkpt>
      <trkpt lat="44.63301" lon="4.46692">
        <ele>379</ele>
        <time>2021-07-22T18:49:51Z</time>
      </trkpt>
      <trkpt lat="44.63296" lon="4.46697">
        <ele>379</ele>
        <time>2021-07-22T18:50:00Z</time>
      </trkpt>
      <trkpt lat="44.63289" lon="4.46682">
        <ele>378</ele>
        <time>2021-07-22T18:50:17Z</time>
      </trkpt>
      <trkpt lat="44.63259" lon="4.46666">
        <ele>378</ele>
        <time>2021-07-22T18:50:59Z</time>
      </trkpt>
      <trkpt lat="44.63222" lon="4.46647">
        <ele>376</ele>
        <time>2021-07-22T18:51:52Z</time>
      </trkpt>
      <trkpt lat="44.63206" lon="4.4664">
        <ele>375</ele>
        <time>2021-07-22T18:52:14Z</time>
      </trkpt>
      <trkpt lat="44.63192" lon="4.46639">
        <ele>375</ele>
        <time>2021-07-22T18:52:33Z</time>
      </trkpt>
      <trkpt lat="44.63148" lon="4.46613">
        <ele>371</ele>
        <time>2021-07-22T18:53:37Z</time>
      </trkpt>
      <trkpt lat="44.63107" lon="4.4659">
        <ele>366</ele>
        <time>2021-07-22T18:54:36Z</time>
      </trkpt>
      <trkpt lat="44.63102" lon="4.4658">
        <ele>365</ele>
        <time>2021-07-22T18:54:47Z</time>
      </trkpt>
      <trkpt lat="44.631" lon="4.46541">
        <ele>362</ele>
        <time>2021-07-22T18:55:24Z</time>
      </trkpt>
      <trkpt lat="44.63088" lon="4.46509">
        <ele>359</ele>
        <time>2021-07-22T18:55:59Z</time>
      </trkpt>
      <trkpt lat="44.63116" lon="4.46474">
        <ele>357</ele>
        <time>2021-07-22T18:56:49Z</time>
      </trkpt>
      <trkpt lat="44.63137" lon="4.46447">
        <ele>356</ele>
        <time>2021-07-22T18:57:27Z</time>
      </trkpt>
      <trkpt lat="44.63138" lon="4.46429">
        <ele>355</ele>
        <time>2021-07-22T18:57:44Z</time>
      </trkpt>
      <trkpt lat="44.63132" lon="4.46428">
        <ele>354</ele>
        <time>2021-07-22T18:57:52Z</time>
      </trkpt>
      <trkpt lat="44.63125" lon="4.46399">
        <ele>349</ele>
        <time>2021-07-22T18:58:21Z</time>
      </trkpt>
      <trkpt lat="44.63091" lon="4.46368">
        <ele>337</ele>
        <time>2021-07-22T18:59:15Z</time>
      </trkpt>
      <trkpt lat="44.63088" lon="4.46356">
        <ele>334</ele>
        <time>2021-07-22T18:59:27Z</time>
      </trkpt>
      <trkpt lat="44.63079" lon="4.46353">
        <ele>332</ele>
        <time>2021-07-22T18:59:40Z</time>
      </trkpt>
      <trkpt lat="44.63042" lon="4.46377">
        <ele>331</ele>
        <time>2021-07-22T19:00:34Z</time>
      </trkpt>
      <trkpt lat="44.63037" lon="4.46384">
        <ele>331</ele>
        <time>2021-07-22T19:00:43Z</time>
      </trkpt>
      <trkpt lat="44.63032" lon="4.46383">
        <ele>330</ele>
        <time>2021-07-22T19:00:50Z</time>
      </trkpt>
      <trkpt lat="44.63011" lon="4.46395">
        <ele>328</ele>
        <time>2021-07-22T19:01:20Z</time>
      </trkpt>
      <trkpt lat="44.62997" lon="4.46415">
        <ele>330</ele>
        <time>2021-07-22T19:01:47Z</time>
      </trkpt>
      <trkpt lat="44.63" lon="4.46439">
        <ele>333</ele>
        <time>2021-07-22T19:02:10Z</time>
      </trkpt>
      <trkpt lat="44.62999" lon="4.46452">
        <ele>335</ele>
        <time>2021-07-22T19:02:23Z</time>
      </trkpt>
      <trkpt lat="44.62967" lon="4.46495">
        <ele>346</ele>
        <time>2021-07-22T19:03:22Z</time>
      </trkpt>
      <trkpt lat="44.62972" lon="4.46518">
        <ele>348</ele>
        <time>2021-07-22T19:03:44Z</time>
      </trkpt>
      <trkpt lat="44.62969" lon="4.46596">
        <ele>352</ele>
        <time>2021-07-22T19:04:59Z</time>
      </trkpt>
      <trkpt lat="44.62961" lon="4.46632">
        <ele>353</ele>
        <time>2021-07-22T19:05:34Z</time>
      </trkpt>
      <trkpt lat="44.62961" lon="4.46661">
        <ele>353</ele>
        <time>2021-07-22T19:06:02Z</time>
      </trkpt>
      <trkpt lat="44.62963" lon="4.46668">
        <ele>353</ele>
        <time>2021-07-22T19:06:09Z</time>
      </trkpt>
      <trkpt lat="44.62937" lon="4.4669">
        <ele>355</ele>
        <time>2021-07-22T19:06:50Z</time>
      </trkpt>
      <trkpt lat="44.62936" lon="4.46712">
        <ele>356</ele>
        <time>2021-07-22T19:07:11Z</time>
      </trkpt>
      <trkpt lat="44.62927" lon="4.46712">
        <ele>356</ele>
        <time>2021-07-22T19:07:23Z</time>
      </trkpt>
      <trkpt lat="44.62894" lon="4.46717">
        <ele>358</ele>
        <time>2021-07-22T19:08:07Z</time>
      </trkpt>
      <trkpt lat="44.62836" lon="4.46737">
        <ele>361</ele>
        <time>2021-07-22T19:09:27Z</time>
      </trkpt>
      <trkpt lat="44.62827" lon="4.46753">
        <ele>361</ele>
        <time>2021-07-22T19:09:46Z</time>
      </trkpt>
      <trkpt lat="44.62828" lon="4.46764">
        <ele>362</ele>
        <time>2021-07-22T19:09:56Z</time>
      </trkpt>
      <trkpt lat="44.62822" lon="4.46769">
        <ele>362</ele>
        <time>2021-07-22T19:10:06Z</time>
      </trkpt>
      <trkpt lat="44.62762" lon="4.4681">
        <ele>361</ele>
        <time>2021-07-22T19:11:35Z</time>
      </trkpt>
      <trkpt lat="44.62738" lon="4.46765">
        <ele>360</ele>
        <time>2021-07-22T19:12:28Z</time>
      </trkpt>
      <trkpt lat="44.62708" lon="4.46754">
        <ele>359</ele>
        <time>2021-07-22T19:13:10Z</time>
      </trkpt>
      <trkpt lat="44.62653" lon="4.46682">
        <ele>361</ele>
        <time>2021-07-22T19:14:50Z</time>
      </trkpt>
      <trkpt lat="44.62582" lon="4.46605">
        <ele>361</ele>
        <time>2021-07-22T19:16:50Z</time>
      </trkpt>
      <trkpt lat="44.62537" lon="4.46514">
        <ele>358</ele>
        <time>2021-07-22T19:18:35Z</time>
      </trkpt>
      <trkpt lat="44.62532" lon="4.46461">
        <ele>358</ele>
        <time>2021-07-22T19:19:26Z</time>
      </trkpt>
      <trkpt lat="44.6246" lon="4.46294">
        <ele>354</ele>
        <time>2021-07-22T19:22:31Z</time>
      </trkpt>
      <trkpt lat="44.62368" lon="4.46224">
        <ele>351</ele>
        <time>2021-07-22T19:24:51Z</time>
      </trkpt>
      <trkpt lat="44.62347" lon="4.46154">
        <ele>349</ele>
        <time>2021-07-22T19:26:03Z</time>
      </trkpt>
      <trkpt lat="44.62309" lon="4.46086">
        <ele>346</ele>
        <time>2021-07-22T19:27:25Z</time>
      </trkpt>
      <trkpt lat="44.62261" lon="4.46013">
        <ele>343</ele>
        <time>2021-07-22T19:28:59Z</time>
      </trkpt>
      <trkpt lat="44.62262" lon="4.45979">
        <ele>342</ele>
        <time>2021-07-22T19:29:32Z</time>
      </trkpt>
      <trkpt lat="44.62291" lon="4.45935">
        <ele>340</ele>
        <time>2021-07-22T19:30:29Z</time>
      </trkpt>
      <trkpt lat="44.62322" lon="4.45916">
        <ele>338</ele>
        <time>2021-07-22T19:31:14Z</time>
      </trkpt>
      <trkpt lat="44.62317" lon="4.45869">
        <ele>333</ele>
        <time>2021-07-22T19:31:59Z</time>
      </trkpt>
      <trkpt lat="44.62284" lon="4.45803">
        <ele>330</ele>
        <time>2021-07-22T19:33:15Z</time>
      </trkpt>
      <trkpt lat="44.62276" lon="4.45732">
        <ele>324</ele>
        <time>2021-07-22T19:34:24Z</time>
      </trkpt>
      <trkpt lat="44.62244" lon="4.45676">
        <ele>326</ele>
        <time>2021-07-22T19:35:32Z</time>
      </trkpt>
      <trkpt lat="44.62225" lon="4.45625">
        <ele>323</ele>
        <time>2021-07-22T19:36:27Z</time>
      </trkpt>
      <trkpt lat="44.62214" lon="4.45538">
        <ele>321</ele>
        <time>2021-07-22T19:37:51Z</time>
      </trkpt>
      <trkpt lat="44.62216" lon="4.45462">
        <ele>321</ele>
        <time>2021-07-22T19:39:03Z</time>
      </trkpt>
      <trkpt lat="44.62238" lon="4.45369">
        <ele>318</ele>
        <time>2021-07-22T19:40:36Z</time>
      </trkpt>
      <trkpt lat="44.62253" lon="4.45322">
        <ele>316</ele>
        <time>2021-07-22T19:41:25Z</time>
      </trkpt>
      <trkpt lat="44.62213" lon="4.45287">
        <ele>317</ele>
        <time>2021-07-22T19:42:28Z</time>
      </trkpt>
      <trkpt lat="44.6216" lon="4.45257">
        <ele>318</ele>
        <time>2021-07-22T19:43:44Z</time>
      </trkpt>
      <trkpt lat="44.62093" lon="4.45239">
        <ele>320</ele>
        <time>2021-07-22T19:45:15Z</time>
      </trkpt>
      <trkpt lat="44.62048" lon="4.45218">
        <ele>320</ele>
        <time>2021-07-22T19:46:18Z</time>
      </trkpt>
      <trkpt lat="44.62006" lon="4.45194">
        <ele>321.8</ele>
      </trkpt>
      <trkpt lat="44.61973" lon="4.45121">
        <ele>317.7</ele>
      </trkpt>
      <trkpt lat="44.61963" lon="4.45056">
        <ele>316.6</ele>
      </trkpt>
      <trkpt lat="44.6197" lon="4.44995">
        <ele>311.9</ele>
      </trkpt>
      <trkpt lat="44.61987" lon="4.44932">
        <ele>311</ele>
      </trkpt>
      <trkpt lat="44.62015" lon="4.44892">
        <ele>305.7</ele>
      </trkpt>
      <trkpt lat="44.62043" lon="4.44857">
        <ele>303.1</ele>
      </trkpt>
      <trkpt lat="44.62052" lon="4.44834">
        <ele>304</ele>
      </trkpt>
      <trkpt lat="44.6205" lon="4.44817">
        <ele>302.2</ele>
      </trkpt>
      <trkpt lat="44.62036" lon="4.44761">
        <ele>298.5</ele>
      </trkpt>
      <trkpt lat="44.61972" lon="4.44678">
        <ele>295.8</ele>
      </trkpt>
      <trkpt lat="44.61963" lon="4.44643">
        <ele>290.5</ele>
      </trkpt>
      <trkpt lat="44.61933" lon="4.44614">
        <ele>289.8</ele>
      </trkpt>
      <trkpt lat="44.61893" lon="4.4454">
        <ele>284.8</ele>
      </trkpt>
      <trkpt lat="44.61877" lon="4.44524">
        <ele>283.9</ele>
      </trkpt>
      <trkpt lat="44.61838" lon="4.44503">
        <ele>283.3</ele>
      </trkpt>
      <trkpt lat="44.61821" lon="4.44481">
        <ele>280.4</ele>
      </trkpt>
      <trkpt lat="44.61784" lon="4.44459">
        <ele>278.8</ele>
      </trkpt>
      <trkpt lat="44.61755" lon="4.44454">
        <ele>279</ele>
      </trkpt>
      <trkpt lat="44.61741" lon="4.44419">
        <ele>275</ele>
      </trkpt>
      <trkpt lat="44.61749" lon="4.44404">
        <ele>274.2</ele>
      </trkpt>
      <trkpt lat="44.61775" lon="4.44371">
        <ele>271.2</ele>
      </trkpt>
      <trkpt lat="44.61813" lon="4.44334">
        <ele>266.7</ele>
      </trkpt>
      <trkpt lat="44.6182" lon="4.44312">
        <ele>265.1</ele>
      </trkpt>
      <trkpt lat="44.61816" lon="4.44243">
        <ele>261.7</ele>
      </trkpt>
      <trkpt lat="44.61807" lon="4.44225">
        <ele>262.1</ele>
      </trkpt>
      <trkpt lat="44.61813" lon="4.44145">
        <ele>260.4</ele>
      </trkpt>
      <trkpt lat="44.61789" lon="4.44045">
        <ele>256.9</ele>
      </trkpt>
      <trkpt lat="44.61797" lon="4.43943">
        <ele>250.8</ele>
      </trkpt>
      <trkpt lat="44.618" lon="4.43895">
        <ele>249.4</ele>
      </trkpt>
      <trkpt lat="44.61804" lon="4.4385">
        <ele>246</ele>
      </trkpt>
      <trkpt lat="44.61811" lon="4.43847">
        <ele>243.9</ele>
      </trkpt>
      <trkpt lat="44.61818" lon="4.43852">
        <ele>242.2</ele>
      </trkpt>
      <trkpt lat="44.61812" lon="4.43891">
        <ele>243.2</ele>
      </trkpt>
      <trkpt lat="44.61807" lon="4.43934">
        <ele>244.1</ele>
      </trkpt>
      <trkpt lat="44.61815" lon="4.44037">
        <ele>241.5</ele>
      </trkpt>
      <trkpt lat="44.61864" lon="4.44091">
        <ele>234.6</ele>
      </trkpt>
      <trkpt lat="44.61879" lon="4.44114">
        <ele>234.7</ele>
      </trkpt>
      <trkpt lat="44.61892" lon="4.4414">
        <ele>231.2</ele>
      </trkpt>
      <trkpt lat="44.61899" lon="4.4414">
        <ele>229.3</ele>
      </trkpt>
      <trkpt lat="44.61902" lon="4.44127">
        <ele>228.6</ele>
      </trkpt>
      <trkpt lat="44.61892" lon="4.44106">
        <ele>230.2</ele>
      </trkpt>
      <trkpt lat="44.61868" lon="4.44062">
        <ele>228.2</ele>
      </trkpt>
      <trkpt lat="44.6186" lon="4.44061">
        <ele>229.7</ele>
        <time>2021-07-22T19:47:33Z</time>
      </trkpt>
    </trkseg>
  </trk>
</gpx>